Decoded Metar for KTKI (MCKINNEY in TX, USA) (IATA:TKI) | Meteo·Mobile Aviation Weather
aviador You're here:

KTKI Decoded Metar

MCKINNEY in TX, USA
Report Time2018-12-11 02:53:00
UTC Time2018-12-11 03:18:18
Flight Rules vfr VFR
Wind170° at 05 kt
W.Decomp.*RWY 18: 4.9 kt HW 1.1 kt LCW
W.Rank170° ranks 1
Current wind is below 170° avg. (10.0)
Visibility9999 m
Phenomena:N/A
Clouds:N/A
Expected CloudBase > 1,600 ft AGL from Temp-Dew spread
CeilingNone
Temp03°C (ISA -11)
Dew Point-1°C (75% RH)
AAT-0.9°C
QNH1028 hPa
Density Alt-1,155 ft
Elevation587 ft
Report Wrong Elevation
Raw Report
KTKI 110253Z 17005KT 10SM CLR 03/M01 A3036 RMK AO2 SLP294
T00281006 51008=

Extra information for KTKI:More info

Metar Taf Metar & Taf Last 4 Metars F.Rules Stats Wind Profile Meteogram Temp Stats Airport Information Weather charts Add Link Nearby VenuesMetar ALERT Operation Metar Decoded Social comments

AIRNAV info for KTKI